Time;durP1;ratioP1;P1;durP2;ratioP2;P2;SDS_P1;SDS_P2;PMS_P1;PMS_P2;Temp;Humidity;BMP_temperature;BMP_pressure;BME280_temperature;BME280_humidity;BME280_pressure;Samples;Min_cycle;Max_cycle;Signal;HPM_P1;HPM_P2
2022/08/28 00:02:10;;;;;;;7.93;3.67;;;;;;;;;;5175935;28;20038;-82
2022/08/28 00:04:40;;;;;;;3.50;3.30;;;;;;;;;;5196443;28;20089;-82
2022/08/28 00:07:11;;;;;;;8.02;5.55;;;;;;;;;;5195567;28;20017;-81
2022/08/28 00:09:41;;;;;;;4.70;2.67;;;;;;;;;;5173800;28;20439;-80
2022/08/28 00:12:12;;;;;;;2.90;2.70;;;;;;;;;;5190730;28;20022;-82
2022/08/28 00:14:42;;;;;;;6.07;5.07;;;;;;;;;;5189961;28;20085;-82
2022/08/28 00:17:13;;;;;;;6.72;4.05;;;;;;;;;;5191406;28;20018;-81
2022/08/28 00:19:43;;;;;;;9.77;3.78;;;;;;;;;;5192528;28;20022;-80
2022/08/28 00:22:13;;;;;;;3.38;3.17;;;;;;;;;;5192729;28;20053;-81
2022/08/28 00:24:44;;;;;;;4.33;4.03;;;;;;;;;;5193358;28;20010;-81
2022/08/28 00:30:03;;;;;;;6.68;4.88;;;;;;;;;;5191529;28;20416;-81
2022/08/28 00:32:34;;;;;;;5.90;3.35;;;;;;;;;;5174155;28;20030;-80
2022/08/28 00:35:06;;;;;;;4.35;4.03;;;;;;;;;;5179178;28;20022;-78
2022/08/28 00:37:38;;;;;;;5.22;4.70;;;;;;;;;;5194815;28;20021;-78
2022/08/28 00:40:09;;;;;;;4.90;3.33;;;;;;;;;;5190493;28;20075;-81
2022/08/28 00:42:39;;;;;;;6.63;3.50;;;;;;;;;;5190113;28;20022;-79
2022/08/28 00:45:09;;;;;;;4.57;3.10;;;;;;;;;;5188704;28;20024;-81
2022/08/28 00:47:39;;;;;;;3.63;3.40;;;;;;;;;;5172976;28;20029;-81
2022/08/28 00:50:11;;;;;;;5.43;4.68;;;;;;;;;;5190165;28;20562;-81
2022/08/28 00:52:43;;;;;;;9.48;4.60;;;;;;;;;;5172521;28;20476;-81
2022/08/28 00:55:19;;;;;;;3.38;3.15;;;;;;;;;;5172050;28;20105;-81
2022/08/28 00:57:52;;;;;;;3.97;3.58;;;;;;;;;;5189821;28;20014;-79
2022/08/28 01:00:30;;;;;;;4.40;4.18;;;;;;;;;;5189392;28;20022;-82
2022/08/28 01:03:01;;;;;;;3.05;2.95;;;;;;;;;;5189862;28;20014;-82
2022/08/28 01:05:33;;;;;;;6.85;5.20;;;;;;;;;;5189471;28;20034;-81
2022/08/28 01:08:03;;;;;;;6.30;4.35;;;;;;;;;;5171863;28;20431;-82
2022/08/28 01:10:34;;;;;;;3.95;3.47;;;;;;;;;;5189700;28;20022;-78
2022/08/28 01:13:04;;;;;;;6.20;4.15;;;;;;;;;;5189516;28;20018;-79
2022/08/28 01:15:35;;;;;;;5.88;3.78;;;;;;;;;;5188433;28;20037;-80
2022/08/28 01:18:07;;;;;;;6.57;4.22;;;;;;;;;;5172269;28;20036;-81
2022/08/28 01:20:42;;;;;;;5.78;5.20;;;;;;;;;;5188869;28;20029;-81
2022/08/28 01:23:42;;;;;;;5.10;4.70;;;;;;;;;;5171949;28;20014;-78
2022/08/28 01:26:13;;;;;;;8.63;5.20;;;;;;;;;;5172304;28;20033;-81
2022/08/28 01:28:44;;;;;;;5.70;4.22;;;;;;;;;;5175469;28;20033;-78
2022/08/28 01:31:15;;;;;;;5.47;4.82;;;;;;;;;;5175155;28;20032;-81
2022/08/28 01:33:46;;;;;;;7.03;5.30;;;;;;;;;;5174577;28;20492;-81
2022/08/28 01:36:16;;;;;;;5.25;3.97;;;;;;;;;;5193488;28;20026;-81
2022/08/28 01:38:51;;;;;;;9.93;5.07;;;;;;;;;;5193409;28;20188;-81
2022/08/28 01:41:21;;;;;;;9.95;5.32;;;;;;;;;;5193092;28;20037;-80
2022/08/28 01:43:53;;;;;;;9.17;5.70;;;;;;;;;;5192794;28;20542;-79
2022/08/28 01:46:23;;;;;;;5.93;4.72;;;;;;;;;;5193445;28;20272;-82
2022/08/28 01:48:53;;;;;;;5.43;4.75;;;;;;;;;;5193380;28;20018;-82
2022/08/28 01:51:24;;;;;;;5.82;4.50;;;;;;;;;;5200625;28;20022;-78
2022/08/28 01:53:54;;;;;;;5.90;5.47;;;;;;;;;;5184948;28;20022;-81
2022/08/28 01:56:24;;;;;;;5.18;4.78;;;;;;;;;;5202737;28;20561;-79
2022/08/28 01:58:54;;;;;;;6.53;5.85;;;;;;;;;;5184506;28;20018;-78
2022/08/28 02:01:25;;;;;;;7.85;5.63;;;;;;;;;;5201051;28;20033;-77
2022/08/28 02:03:55;;;;;;;5.95;5.38;;;;;;;;;;5199656;28;20021;-77
2022/08/28 02:06:25;;;;;;;7.80;5.47;;;;;;;;;;5201410;28;20013;-80
2022/08/28 02:08:56;;;;;;;8.52;5.90;;;;;;;;;;5178180;28;20022;-83
2022/08/28 02:11:28;;;;;;;10.32;6.03;;;;;;;;;;5175048;28;20029;-81
2022/08/28 02:13:59;;;;;;;6.70;5.78;;;;;;;;;;5174548;28;20030;-81
2022/08/28 02:16:29;;;;;;;9.75;5.32;;;;;;;;;;5192921;28;20484;-78
2022/08/28 02:19:00;;;;;;;5.18;4.80;;;;;;;;;;5192887;28;20022;-79
2022/08/28 02:21:30;;;;;;;7.25;4.90;;;;;;;;;;5194822;28;20014;-80
2022/08/28 02:24:00;;;;;;;6.20;5.70;;;;;;;;;;5177508;28;20048;-81
2022/08/28 02:26:31;;;;;;;5.72;5.25;;;;;;;;;;5177375;28;20030;-81
2022/08/28 02:29:01;;;;;;;7.00;5.22;;;;;;;;;;5193028;28;20033;-82
2022/08/28 02:31:31;;;;;;;12.20;5.60;;;;;;;;;;5193011;28;20416;-82
2022/08/28 02:34:01;;;;;;;4.97;4.63;;;;;;;;;;5191657;28;20635;-82
2022/08/28 02:36:32;;;;;;;5.30;4.90;;;;;;;;;;5173846;28;20021;-81
2022/08/28 02:39:02;;;;;;;7.07;6.47;;;;;;;;;;5174843;28;20026;-82
2022/08/28 02:41:33;;;;;;;5.00;4.60;;;;;;;;;;5192167;28;20431;-80
2022/08/28 02:44:03;;;;;;;10.23;4.88;;;;;;;;;;5191481;28;20017;-81
2022/08/28 02:46:34;;;;;;;4.85;4.55;;;;;;;;;;5192567;28;20018;-81
2022/08/28 02:49:04;;;;;;;4.73;4.50;;;;;;;;;;5192048;28;20025;-82
2022/08/28 02:51:34;;;;;;;4.45;4.07;;;;;;;;;;5174782;28;20291;-81
2022/08/28 02:54:05;;;;;;;4.80;4.22;;;;;;;;;;5191794;28;20032;-82
2022/08/28 02:56:35;;;;;;;5.00;4.55;;;;;;;;;;5191859;28;20032;-82
2022/08/28 02:59:05;;;;;;;8.48;5.07;;;;;;;;;;5192307;28;20492;-81
2022/08/28 03:01:35;;;;;;;6.10;4.00;;;;;;;;;;5192296;28;20029;-82
2022/08/28 03:04:06;;;;;;;5.43;4.67;;;;;;;;;;5191406;28;20014;-82
2022/08/28 03:06:36;;;;;;;6.15;5.65;;;;;;;;;;5192349;28;20766;-80
2022/08/28 03:09:07;;;;;;;4.47;4.18;;;;;;;;;;5191998;28;20017;-81
2022/08/28 03:11:37;;;;;;;6.88;3.90;;;;;;;;;;5191580;28;20109;-81
2022/08/28 03:14:07;;;;;;;6.55;5.90;;;;;;;;;;5191075;28;20205;-81
2022/08/28 03:16:38;;;;;;;8.38;4.78;;;;;;;;;;5173881;28;20032;-82
2022/08/28 03:19:08;;;;;;;5.38;4.95;;;;;;;;;;5174601;28;20108;-82
2022/08/28 03:21:38;;;;;;;12.57;5.22;;;;;;;;;;5191417;28;20025;-82
2022/08/28 03:24:08;;;;;;;9.05;5.45;;;;;;;;;;5192107;28;20387;-82
2022/08/28 03:26:39;;;;;;;8.52;5.63;;;;;;;;;;5191640;28;20043;-82
2022/08/28 03:29:09;;;;;;;6.68;5.07;;;;;;;;;;5191615;28;20025;-83
2022/08/28 03:31:39;;;;;;;9.57;6.93;;;;;;;;;;5191637;28;20026;-82
2022/08/28 03:34:09;;;;;;;6.88;6.22;;;;;;;;;;5190911;28;20061;-83
2022/08/28 03:36:40;;;;;;;6.45;5.97;;;;;;;;;;5173684;28;20056;-81
2022/08/28 03:39:10;;;;;;;9.70;4.00;;;;;;;;;;5191527;28;20017;-79
2022/08/28 03:41:40;;;;;;;12.18;4.70;;;;;;;;;;5174107;28;20009;-78
2022/08/28 03:44:10;;;;;;;6.67;4.20;;;;;;;;;;5190715;28;20087;-80
2022/08/28 03:46:41;;;;;;;9.90;4.05;;;;;;;;;;5173840;28;20292;-81
2022/08/28 03:49:12;;;;;;;5.00;4.65;;;;;;;;;;5192170;28;20022;-82
2022/08/28 03:51:42;;;;;;;5.97;3.88;;;;;;;;;;5191256;28;20534;-83
2022/08/28 03:54:13;;;;;;;5.10;3.47;;;;;;;;;;5191662;28;20026;-81
2022/08/28 03:56:43;;;;;;;6.38;5.88;;;;;;;;;;5192487;28;20084;-78
2022/08/28 03:59:13;;;;;;;14.13;5.93;;;;;;;;;;5193137;28;20022;-78
2022/08/28 04:01:43;;;;;;;6.67;4.03;;;;;;;;;;5174476;28;20261;-81
2022/08/28 04:04:14;;;;;;;6.28;4.68;;;;;;;;;;5191796;28;20256;-82
2022/08/28 04:06:44;;;;;;;4.80;4.40;;;;;;;;;;5176376;28;20025;-79
2022/08/28 04:09:14;;;;;;;5.85;5.35;;;;;;;;;;5194189;28;20257;-81
2022/08/28 04:11:44;;;;;;;14.38;5.07;;;;;;;;;;5175417;28;20084;-82
2022/08/28 04:14:15;;;;;;;8.50;4.77;;;;;;;;;;5196377;28;20028;-81
2022/08/28 04:16:45;;;;;;;11.60;7.10;;;;;;;;;;5181841;28;20312;-80
2022/08/28 04:19:15;;;;;;;5.70;5.18;;;;;;;;;;5199739;28;20072;-79
2022/08/28 04:21:46;;;;;;;5.35;4.40;;;;;;;;;;5199934;28;20018;-79
2022/08/28 04:24:16;;;;;;;6.25;5.63;;;;;;;;;;5202247;28;20040;-81
2022/08/28 04:26:46;;;;;;;5.95;5.55;;;;;;;;;;5203326;28;20053;-79
2022/08/28 04:29:17;;;;;;;9.55;4.35;;;;;;;;;;5196353;28;20400;-81
2022/08/28 04:31:48;;;;;;;9.25;5.28;;;;;;;;;;5196933;28;20013;-78
2022/08/28 04:34:18;;;;;;;7.65;5.53;;;;;;;;;;5201826;28;20030;-81
2022/08/28 04:36:49;;;;;;;5.75;5.18;;;;;;;;;;5202758;28;20067;-80
2022/08/28 04:39:20;;;;;;;6.68;4.70;;;;;;;;;;5201072;28;20025;-81
2022/08/28 04:41:50;;;;;;;8.30;4.90;;;;;;;;;;5185762;28;20110;-78
2022/08/28 04:44:21;;;;;;;6.05;4.40;;;;;;;;;;5196372;28;20026;-79
2022/08/28 04:46:52;;;;;;;11.45;5.80;;;;;;;;;;5189208;28;20060;-78
2022/08/28 04:49:22;;;;;;;5.28;4.88;;;;;;;;;;5188496;28;20037;-80
2022/08/28 04:51:52;;;;;;;6.45;5.18;;;;;;;;;;5170836;28;20018;-80
2022/08/28 04:54:23;;;;;;;6.55;5.82;;;;;;;;;;5187540;28;20069;-81
2022/08/28 04:56:53;;;;;;;8.00;5.50;;;;;;;;;;5188198;28;20496;-79
2022/08/28 04:59:23;;;;;;;8.45;4.07;;;;;;;;;;5187676;28;20350;-78
2022/08/28 05:01:53;;;;;;;6.53;5.07;;;;;;;;;;5170511;28;20018;-79
2022/08/28 05:04:25;;;;;;;7.95;5.22;;;;;;;;;;5187082;28;20261;-79
2022/08/28 05:06:56;;;;;;;7.65;4.70;;;;;;;;;;5169363;28;20391;-80
2022/08/28 05:09:26;;;;;;;7.15;5.05;;;;;;;;;;5188019;28;20064;-79
2022/08/28 05:12:00;;;;;;;5.65;5.25;;;;;;;;;;5169873;28;20040;-79
2022/08/28 05:14:30;;;;;;;7.35;5.47;;;;;;;;;;5169561;28;20567;-81
2022/08/28 05:17:01;;;;;;;7.75;6.10;;;;;;;;;;5188198;28;20078;-81
2022/08/28 05:19:31;;;;;;;9.85;4.38;;;;;;;;;;5170149;28;20018;-81
2022/08/28 05:22:01;;;;;;;6.10;4.55;;;;;;;;;;5188348;28;20052;-80
2022/08/28 05:24:31;;;;;;;5.63;4.95;;;;;;;;;;5172813;28;20050;-82
2022/08/28 05:27:02;;;;;;;9.10;5.00;;;;;;;;;;5190488;28;20022;-82
2022/08/28 05:32:05;;;;;;;5.40;4.68;;;;;;;;;;5203063;28;20398;-63
2022/08/28 05:34:35;;;;;;;5.45;4.95;;;;;;;;;;5204443;28;20100;-64
2022/08/28 05:37:07;;;;;;;9.90;5.88;;;;;;;;;;5204460;28;20017;-64
2022/08/28 05:39:37;;;;;;;5.55;4.97;;;;;;;;;;5203263;28;20018;-64
2022/08/28 05:42:08;;;;;;;12.15;5.63;;;;;;;;;;5204702;28;20238;-65
2022/08/28 05:44:38;;;;;;;5.90;4.03;;;;;;;;;;5204063;28;20017;-63
2022/08/28 05:47:08;;;;;;;9.10;5.60;;;;;;;;;;5204026;28;20632;-64
2022/08/28 05:49:39;;;;;;;8.50;5.95;;;;;;;;;;5205614;28;20260;-64
2022/08/28 05:52:09;;;;;;;5.38;4.70;;;;;;;;;;5205594;28;20023;-67
2022/08/28 05:54:39;;;;;;;10.35;4.63;;;;;;;;;;5206016;28;20022;-68
2022/08/28 05:57:10;;;;;;;7.95;5.10;;;;;;;;;;5206415;28;20115;-67
2022/08/28 05:59:40;;;;;;;4.50;4.13;;;;;;;;;;5206224;28;20014;-66
2022/08/28 06:02:10;;;;;;;6.07;5.60;;;;;;;;;;5205875;28;20025;-65
2022/08/28 06:04:40;;;;;;;5.55;3.88;;;;;;;;;;5206355;28;20450;-64
2022/08/28 06:07:12;;;;;;;4.82;4.28;;;;;;;;;;5212046;28;20427;-66
2022/08/28 06:09:42;;;;;;;9.40;4.90;;;;;;;;;;5214921;28;20025;-67
2022/08/28 06:12:13;;;;;;;18.98;7.28;;;;;;;;;;5208615;28;20025;-66
2022/08/28 06:14:43;;;;;;;4.22;3.90;;;;;;;;;;5210731;28;20462;-66
2022/08/28 06:17:13;;;;;;;4.63;4.28;;;;;;;;;;5212689;28;20021;-65
2022/08/28 06:19:43;;;;;;;8.73;4.93;;;;;;;;;;5213709;28;20017;-65
2022/08/28 06:22:14;;;;;;;9.65;4.85;;;;;;;;;;5213446;28;20041;-64
2022/08/28 06:24:44;;;;;;;4.45;4.15;;;;;;;;;;5212089;28;20215;-64
2022/08/28 06:27:14;;;;;;;3.47;3.28;;;;;;;;;;5214723;28;20017;-65
2022/08/28 06:29:44;;;;;;;4.17;3.87;;;;;;;;;;5212857;28;20025;-65
2022/08/28 06:32:15;;;;;;;7.43;4.43;;;;;;;;;;5214852;22;20324;-64
2022/08/28 06:34:45;;;;;;;16.73;5.55;;;;;;;;;;5204364;28;20350;-64
2022/08/28 06:37:15;;;;;;;6.18;4.50;;;;;;;;;;5204096;28;20052;-64
2022/08/28 06:39:46;;;;;;;6.53;5.07;;;;;;;;;;5204674;28;20021;-64
2022/08/28 06:42:16;;;;;;;4.85;4.40;;;;;;;;;;5203405;28;20260;-63
2022/08/28 06:44:46;;;;;;;13.10;5.32;;;;;;;;;;5204261;28;20014;-65
2022/08/28 06:47:16;;;;;;;7.85;5.13;;;;;;;;;;5205328;28;20028;-66
2022/08/28 06:49:47;;;;;;;4.30;3.97;;;;;;;;;;5186244;28;20071;-64
2022/08/28 06:52:17;;;;;;;7.70;4.23;;;;;;;;;;5204874;28;20021;-63
2022/08/28 06:54:47;;;;;;;4.68;4.13;;;;;;;;;;5205173;28;20275;-65
2022/08/28 06:57:18;;;;;;;4.57;3.95;;;;;;;;;;5203811;28;20021;-65
2022/08/28 06:59:48;;;;;;;7.53;3.93;;;;;;;;;;5205003;28;20025;-65
2022/08/28 07:02:18;;;;;;;3.92;3.63;;;;;;;;;;5205216;28;20454;-65
2022/08/28 07:04:52;;;;;;;4.53;4.13;;;;;;;;;;5187006;28;20048;-63
2022/08/28 07:07:22;;;;;;;10.80;4.07;;;;;;;;;;5205146;28;20113;-65
2022/08/28 07:09:52;;;;;;;3.90;3.60;;;;;;;;;;5203156;28;20265;-65
2022/08/28 07:12:23;;;;;;;5.55;4.88;;;;;;;;;;5205328;28;20029;-65
2022/08/28 07:14:53;;;;;;;6.43;4.47;;;;;;;;;;5204645;28;20017;-65
2022/08/28 07:17:23;;;;;;;3.42;3.13;;;;;;;;;;5186929;28;20396;-65
2022/08/28 07:19:53;;;;;;;4.05;3.75;;;;;;;;;;5204895;28;20362;-64
2022/08/28 07:22:25;;;;;;;4.07;3.30;;;;;;;;;;5204728;28;20092;-64
2022/08/28 07:24:56;;;;;;;8.68;4.55;;;;;;;;;;5187259;28;20859;-64
2022/08/28 07:27:26;;;;;;;4.93;4.55;;;;;;;;;;5205357;28;20196;-65
2022/08/28 07:29:57;;;;;;;6.82;4.35;;;;;;;;;;5205206;28;20059;-65
2022/08/28 07:32:27;;;;;;;12.43;4.90;;;;;;;;;;5204541;28;20091;-66
2022/08/28 07:34:58;;;;;;;5.13;4.68;;;;;;;;;;5204269;28;20021;-65
2022/08/28 07:37:28;;;;;;;8.93;5.57;;;;;;;;;;5187146;28;20481;-65
2022/08/28 07:39:59;;;;;;;14.37;4.80;;;;;;;;;;5205405;28;20041;-65
2022/08/28 07:45:18;;;;;;;3.50;3.28;;;;;;;;;;5204273;28;20066;-65
2022/08/28 07:47:48;;;;;;;3.60;3.33;;;;;;;;;;5204583;28;20014;-66
2022/08/28 07:50:18;;;;;;;8.07;4.32;;;;;;;;;;5204410;28;20014;-66
2022/08/28 07:52:48;;;;;;;6.65;4.22;;;;;;;;;;5204531;28;20025;-64
2022/08/28 07:55:19;;;;;;;3.95;3.63;;;;;;;;;;5204013;28;20080;-64
2022/08/28 07:57:49;;;;;;;6.70;4.20;;;;;;;;;;5204482;28;20025;-64
2022/08/28 08:00:19;;;;;;;4.23;3.53;;;;;;;;;;5204244;28;20277;-64
2022/08/28 08:02:49;;;;;;;5.83;4.23;;;;;;;;;;5204170;28;20267;-63
2022/08/28 08:05:20;;;;;;;6.83;2.80;;;;;;;;;;5203419;28;20292;-66
2022/08/28 08:07:51;;;;;;;4.55;3.47;;;;;;;;;;5204261;28;20260;-64
2022/08/28 08:10:21;;;;;;;7.07;4.75;;;;;;;;;;5187033;28;20104;-64
2022/08/28 08:12:51;;;;;;;4.72;3.97;;;;;;;;;;5204734;28;20448;-65
2022/08/28 08:15:22;;;;;;;5.43;3.97;;;;;;;;;;5204247;28;20029;-64
2022/08/28 08:17:52;;;;;;;10.48;4.20;;;;;;;;;;5204400;28;20092;-65
2022/08/28 08:20:23;;;;;;;3.78;3.42;;;;;;;;;;5204064;28;20547;-65
2022/08/28 08:22:53;;;;;;;6.30;3.83;;;;;;;;;;5204270;28;20022;-65
2022/08/28 08:25:23;;;;;;;5.20;4.30;;;;;;;;;;5204363;28;20024;-65
2022/08/28 08:27:53;;;;;;;7.00;4.23;;;;;;;;;;5204829;28;20739;-65
2022/08/28 08:30:24;;;;;;;3.85;3.65;;;;;;;;;;5204221;28;20820;-66
2022/08/28 08:32:54;;;;;;;4.43;3.40;;;;;;;;;;5204362;28;20132;-67
2022/08/28 08:35:24;;;;;;;3.87;3.57;;;;;;;;;;5203156;28;20261;-67
2022/08/28 08:37:54;;;;;;;16.60;4.55;;;;;;;;;;5204044;28;20263;-66
2022/08/28 08:40:25;;;;;;;2.78;2.60;;;;;;;;;;5203763;28;20032;-66
2022/08/28 08:42:56;;;;;;;5.25;2.95;;;;;;;;;;5203743;28;20087;-65
2022/08/28 08:45:28;;;;;;;5.32;2.72;;;;;;;;;;5203703;28;20025;-65
2022/08/28 08:47:59;;;;;;;3.65;3.08;;;;;;;;;;5203501;28;20101;-66
2022/08/28 08:50:31;;;;;;;2.90;2.67;;;;;;;;;;5203603;28;20093;-66
2022/08/28 08:53:08;;;;;;;3.92;3.28;;;;;;;;;;5203458;28;20274;-66
2022/08/28 08:55:43;;;;;;;3.10;2.85;;;;;;;;;;5203167;28;20456;-66
2022/08/28 08:58:21;;;;;;;3.45;2.83;;;;;;;;;;5203260;28;20362;-66
2022/08/28 09:00:55;;;;;;;4.88;2.83;;;;;;;;;;5203347;28;20021;-65
2022/08/28 09:03:42;;;;;;;5.55;3.67;;;;;;;;;;5202686;28;20018;-66
2022/08/28 09:06:31;;;;;;;5.75;4.93;;;;;;;;;;5203057;28;20021;-66
2022/08/28 09:09:04;;;;;;;3.53;3.22;;;;;;;;;;5203080;28;20029;-65
2022/08/28 09:11:47;;;;;;;3.17;2.88;;;;;;;;;;5202778;28;20021;-67
2022/08/28 09:14:36;;;;;;;6.20;3.15;;;;;;;;;;5202717;28;20025;-67
2022/08/28 09:17:07;;;;;;;4.00;3.60;;;;;;;;;;5202696;28;20022;-66
2022/08/28 09:19:37;;;;;;;2.88;2.67;;;;;;;;;;5202534;28;20013;-67
2022/08/28 09:22:08;;;;;;;6.47;2.60;;;;;;;;;;5202771;28;20377;-67
2022/08/28 09:24:39;;;;;;;2.83;2.42;;;;;;;;;;5202293;28;20022;-66
2022/08/28 09:27:22;;;;;;;4.47;2.83;;;;;;;;;;5202793;28;20104;-67
2022/08/28 09:29:56;;;;;;;5.25;2.83;;;;;;;;;;5202845;28;20513;-67
2022/08/28 09:32:32;;;;;;;2.72;2.47;;;;;;;;;;5202562;28;20095;-67
2022/08/28 09:35:05;;;;;;;6.53;3.17;;;;;;;;;;5202549;28;20473;-66
2022/08/28 09:37:35;;;;;;;3.35;3.05;;;;;;;;;;5184926;28;20108;-67
2022/08/28 09:40:26;;;;;;;8.32;3.15;;;;;;;;;;5203105;28;20105;-67
2022/08/28 09:46:03;;;;;;;6.43;3.20;;;;;;;;;;5203992;28;20032;-66
2022/08/28 09:48:34;;;;;;;6.35;2.97;;;;;;;;;;5206772;28;20109;-66
2022/08/28 09:51:08;;;;;;;2.33;2.20;;;;;;;;;;5205090;28;20108;-67
2022/08/28 09:53:53;;;;;;;2.83;2.60;;;;;;;;;;5206758;28;20033;-66
2022/08/28 09:56:27;;;;;;;3.28;3.17;;;;;;;;;;5189213;28;20116;-67
2022/08/28 09:59:09;;;;;;;10.65;4.40;;;;;;;;;;5207209;28;20021;-66
2022/08/28 10:01:48;;;;;;;5.80;3.20;;;;;;;;;;5206851;28;20025;-67
2022/08/28 10:04:34;;;;;;;5.97;3.97;;;;;;;;;;5206683;28;20018;-66
2022/08/28 10:07:07;;;;;;;3.85;3.55;;;;;;;;;;5189068;28;20036;-67
2022/08/28 10:09:56;;;;;;;3.33;3.10;;;;;;;;;;5188626;28;20349;-66
2022/08/28 10:12:26;;;;;;;4.03;3.00;;;;;;;;;;5188368;28;20041;-67
2022/08/28 10:15:08;;;;;;;3.47;2.90;;;;;;;;;;5187952;28;20025;-67
2022/08/28 10:17:38;;;;;;;2.92;2.63;;;;;;;;;;5187986;28;20166;-67
2022/08/28 10:20:14;;;;;;;3.17;2.00;;;;;;;;;;5205799;28;20168;-67
2022/08/28 10:22:58;;;;;;;5.03;2.72;;;;;;;;;;5187992;28;20022;-66
2022/08/28 10:25:45;;;;;;;7.00;2.88;;;;;;;;;;5205591;28;20335;-65
2022/08/28 10:28:34;;;;;;;5.75;2.83;;;;;;;;;;5188117;28;20024;-67
2022/08/28 10:31:17;;;;;;;2.10;1.98;;;;;;;;;;5204403;28;20428;-68
2022/08/28 10:34:10;;;;;;;2.85;2.65;;;;;;;;;;5205819;28;20018;-66
2022/08/28 10:36:41;;;;;;;2.92;2.67;;;;;;;;;;5205824;28;20056;-66
2022/08/28 10:39:37;;;;;;;2.35;2.15;;;;;;;;;;5205664;28;20022;-68
2022/08/28 10:42:08;;;;;;;4.05;3.28;;;;;;;;;;5200926;28;20041;-68
2022/08/28 10:44:50;;;;;;;9.10;3.55;;;;;;;;;;5187324;28;20095;-68
2022/08/28 10:47:22;;;;;;;3.80;2.70;;;;;;;;;;5205193;28;20026;-68
2022/08/28 10:49:55;;;;;;;2.28;2.17;;;;;;;;;;5205333;28;20168;-67
2022/08/28 10:52:28;;;;;;;2.90;2.67;;;;;;;;;;5205576;28;20417;-67
2022/08/28 10:55:04;;;;;;;2.08;1.98;;;;;;;;;;5205146;28;20029;-68
2022/08/28 10:57:38;;;;;;;11.05;3.63;;;;;;;;;;5204118;28;20025;-67
2022/08/28 11:00:10;;;;;;;4.90;2.35;;;;;;;;;;5205169;28;20014;-67
2022/08/28 11:02:44;;;;;;;3.38;2.17;;;;;;;;;;5205653;28;20338;-68
2022/08/28 11:05:18;;;;;;;9.25;3.60;;;;;;;;;;5205248;28;20016;-68
2022/08/28 11:07:53;;;;;;;6.55;3.13;;;;;;;;;;5205372;28;20101;-68
2022/08/28 11:10:33;;;;;;;3.13;2.63;;;;;;;;;;5205103;28;20175;-68
2022/08/28 11:13:05;;;;;;;2.33;2.22;;;;;;;;;;5205178;28;20547;-68
2022/08/28 11:15:37;;;;;;;4.15;2.88;;;;;;;;;;5204370;28;20026;-67
2022/08/28 11:18:14;;;;;;;4.68;2.75;;;;;;;;;;5205291;28;20021;-71
2022/08/28 11:20:58;;;;;;;3.50;3.20;;;;;;;;;;5204889;28;20045;-68
2022/08/28 11:23:48;;;;;;;3.03;2.75;;;;;;;;;;5205110;28;20024;-68
2022/08/28 11:26:26;;;;;;;4.97;3.58;;;;;;;;;;5186109;28;20029;-68
2022/08/28 11:28:56;;;;;;;1.92;1.73;;;;;;;;;;5204470;28;20508;-68
2022/08/28 11:31:29;;;;;;;4.47;2.10;;;;;;;;;;5216447;23;20041;-66
2022/08/28 11:34:01;;;;;;;3.90;2.55;;;;;;;;;;5181794;28;20021;-67
2022/08/28 11:36:31;;;;;;;2.92;2.70;;;;;;;;;;5204485;28;20048;-67
2022/08/28 11:39:04;;;;;;;3.23;2.97;;;;;;;;;;5204365;28;20256;-67
2022/08/28 11:41:38;;;;;;;2.80;2.42;;;;;;;;;;5204507;28;20671;-66
2022/08/28 11:44:08;;;;;;;3.55;2.33;;;;;;;;;;5203535;28;20016;-64
2022/08/28 11:46:40;;;;;;;2.70;2.50;;;;;;;;;;5204323;28;20540;-65
2022/08/28 11:49:22;;;;;;;2.33;2.22;;;;;;;;;;5204251;28;20060;-66
2022/08/28 11:52:10;;;;;;;2.22;2.05;;;;;;;;;;5204162;28;20025;-66
2022/08/28 11:54:49;;;;;;;3.73;3.40;;;;;;;;;;5203891;28;20044;-66
2022/08/28 11:57:30;;;;;;;2.75;2.60;;;;;;;;;;5204331;28;20776;-66
2022/08/28 12:00:03;;;;;;;2.53;2.40;;;;;;;;;;5186379;28;20047;-64
2022/08/28 12:02:37;;;;;;;2.38;2.17;;;;;;;;;;5204295;28;20147;-68
2022/08/28 12:05:08;;;;;;;1.95;1.85;;;;;;;;;;5186684;28;20373;-66
2022/08/28 12:07:40;;;;;;;6.97;2.47;;;;;;;;;;5186583;28;20017;-65
2022/08/28 12:10:19;;;;;;;3.20;3.00;;;;;;;;;;5186833;28;20029;-65
2022/08/28 12:12:49;;;;;;;;;;;;;;;;;;5204926;28;20029;-65
2022/08/28 12:15:26;;;;;;;2.63;2.43;;;;;;;;;;5185738;28;20428;-65
2022/08/28 12:18:16;;;;;;;2.65;2.40;;;;;;;;;;5182240;28;20212;-65
2022/08/28 12:20:49;;;;;;;3.50;1.92;;;;;;;;;;5152267;28;20060;-65
2022/08/28 12:23:22;;;;;;;3.13;2.92;;;;;;;;;;5183439;28;20068;-65
2022/08/28 12:26:01;;;;;;;3.25;1.67;;;;;;;;;;5183207;28;20021;-65
2022/08/28 12:28:38;;;;;;;2.60;2.40;;;;;;;;;;5166083;28;20080;-64
2022/08/28 12:32:10;;;;;;;3.72;1.83;;;;;;;;;;5165526;28;20021;-65
2022/08/28 12:34:35;;;;;;;2.45;2.25;;;;;;;;;;5182437;28;20037;-65
2022/08/28 12:37:18;;;;;;;5.43;2.13;;;;;;;;;;5182799;28;20029;-65
2022/08/28 12:39:50;;;;;;;16.58;3.13;;;;;;;;;;5183321;28;20499;-65
2022/08/28 12:42:25;;;;;;;16.58;3.10;;;;;;;;;;5165272;28;20010;-65
2022/08/28 12:45:00;;;;;;;1.80;1.70;;;;;;;;;;5181444;28;20068;-65
2022/08/28 12:47:31;;;;;;;2.78;2.13;;;;;;;;;;5188256;28;20018;-64
2022/08/28 12:50:20;;;;;;;2.63;2.13;;;;;;;;;;5182853;28;20397;-65
2022/08/28 12:52:52;;;;;;;2.53;2.42;;;;;;;;;;5182949;28;20014;-67
2022/08/28 12:55:23;;;;;;;5.13;2.90;;;;;;;;;;5182033;28;20022;-65
2022/08/28 12:57:53;;;;;;;2.50;2.28;;;;;;;;;;5164903;28;20114;-65
2022/08/28 13:00:28;;;;;;;1.83;1.77;;;;;;;;;;5165002;28;20026;-66
2022/08/28 13:02:58;;;;;;;2.70;1.70;;;;;;;;;;5164467;28;20072;-66
2022/08/28 13:05:31;;;;;;;3.50;3.17;;;;;;;;;;5182151;28;20625;-67
2022/08/28 13:08:03;;;;;;;2.53;2.33;;;;;;;;;;5182194;28;20018;-65
2022/08/28 13:10:33;;;;;;;2.00;1.80;;;;;;;;;;5182537;28;20100;-66
2022/08/28 13:13:05;;;;;;;5.63;2.70;;;;;;;;;;5182204;28;20093;-65
2022/08/28 13:15:42;;;;;;;2.85;1.80;;;;;;;;;;5181719;28;20013;-66
2022/08/28 13:18:35;;;;;;;1.42;1.42;;;;;;;;;;5181969;28;20085;-66
2022/08/28 13:21:12;;;;;;;2.17;1.95;;;;;;;;;;5178890;28;20049;-66
2022/08/28 13:23:50;;;;;;;8.25;2.50;;;;;;;;;;5185794;28;20022;-66
2022/08/28 13:26:20;;;;;;;3.72;2.78;;;;;;;;;;5186073;28;20466;-65
2022/08/28 13:28:50;;;;;;;1.93;1.83;;;;;;;;;;5185854;28;20060;-65
2022/08/28 13:31:24;;;;;;;5.07;1.90;;;;;;;;;;5186223;28;20383;-66
2022/08/28 13:34:24;;;;;;;2.58;2.25;;;;;;;;;;5168073;28;20024;-65
2022/08/28 13:36:58;;;;;;;2.15;1.85;;;;;;;;;;5176493;28;20181;-67
2022/08/28 13:39:29;;;;;;;2.20;2.00;;;;;;;;;;5185971;28;20053;-65
2022/08/28 13:42:05;;;;;;;1.55;1.45;;;;;;;;;;5191531;28;20075;-64
2022/08/28 13:44:39;;;;;;;3.15;2.75;;;;;;;;;;5206008;28;20022;-66
2022/08/28 13:47:10;;;;;;;3.05;2.85;;;;;;;;;;5188994;28;20017;-64
2022/08/28 13:49:40;;;;;;;11.32;2.85;;;;;;;;;;5205869;28;20495;-65
2022/08/28 13:52:10;;;;;;;1.98;1.88;;;;;;;;;;5188446;28;20021;-67
2022/08/28 13:54:41;;;;;;;1.63;1.52;;;;;;;;;;5187932;28;20027;-65
2022/08/28 13:57:12;;;;;;;1.52;1.52;;;;;;;;;;5206253;28;20293;-66
2022/08/28 13:59:42;;;;;;;2.70;1.73;;;;;;;;;;5206130;28;20393;-66
2022/08/28 14:05:02;;;;;;;6.72;1.80;;;;;;;;;;5205935;28;20438;-68
2022/08/28 14:07:32;;;;;;;5.47;2.53;;;;;;;;;;5206042;28;20100;-65
2022/08/28 14:10:03;;;;;;;1.77;1.67;;;;;;;;;;5206089;28;20032;-66
2022/08/28 14:12:33;;;;;;;1.80;1.58;;;;;;;;;;5205482;28;20026;-66
2022/08/28 14:15:05;;;;;;;3.42;1.30;;;;;;;;;;5205134;28;20067;-66
2022/08/28 14:17:35;;;;;;;1.70;1.60;;;;;;;;;;5187939;28;20535;-65
2022/08/28 14:20:06;;;;;;;2.00;1.90;;;;;;;;;;5188075;28;20018;-66
2022/08/28 14:22:37;;;;;;;1.88;1.77;;;;;;;;;;5187895;28;20292;-66
2022/08/28 14:25:08;;;;;;;2.05;1.95;;;;;;;;;;5186848;28;20307;-66
2022/08/28 14:27:38;;;;;;;1.95;1.77;;;;;;;;;;5187667;28;20022;-65
2022/08/28 14:30:09;;;;;;;1.23;1.23;;;;;;;;;;5205484;28;20018;-68
2022/08/28 14:32:39;;;;;;;2.50;2.17;;;;;;;;;;5204196;28;20265;-66
2022/08/28 14:35:10;;;;;;;2.13;2.03;;;;;;;;;;5186782;28;20393;-66
2022/08/28 14:37:40;;;;;;;3.83;1.60;;;;;;;;;;5205118;28;20345;-65
2022/08/28 14:40:11;;;;;;;14.73;2.63;;;;;;;;;;5205179;28;20022;-66
2022/08/28 14:42:41;;;;;;;1.75;1.65;;;;;;;;;;5205485;28;20079;-66
2022/08/28 14:45:12;;;;;;;1.95;1.70;;;;;;;;;;5204666;28;20018;-66
2022/08/28 14:47:44;;;;;;;2.47;1.92;;;;;;;;;;5185377;28;20017;-65
2022/08/28 14:50:14;;;;;;;2.58;1.52;;;;;;;;;;5182492;28;20057;-66
2022/08/28 14:52:45;;;;;;;1.35;1.30;;;;;;;;;;5205637;28;20041;-66
2022/08/28 14:55:15;;;;;;;2.07;1.67;;;;;;;;;;5204613;28;20021;-65
2022/08/28 14:57:45;;;;;;;1.52;1.52;;;;;;;;;;5205054;28;20437;-66
2022/08/28 15:00:16;;;;;;;1.47;1.37;;;;;;;;;;5186857;28;20112;-66
2022/08/28 15:02:46;;;;;;;2.97;1.25;;;;;;;;;;5205073;28;20263;-65
2022/08/28 15:05:16;;;;;;;1.38;1.30;;;;;;;;;;5204544;28;20029;-65
2022/08/28 15:07:47;;;;;;;2.45;2.25;;;;;;;;;;5205069;28;20402;-65
2022/08/28 15:10:18;;;;;;;1.20;1.10;;;;;;;;;;5204966;28;20140;-66
2022/08/28 15:12:48;;;;;;;2.83;1.38;;;;;;;;;;5186348;28;20017;-65
2022/08/28 15:15:19;;;;;;;1.13;1.13;;;;;;;;;;5204495;28;20097;-65
2022/08/28 15:17:49;;;;;;;1.98;1.80;;;;;;;;;;5204614;28;20018;-65
2022/08/28 15:20:19;;;;;;;1.27;1.27;;;;;;;;;;5204953;28;20018;-65
2022/08/28 15:22:50;;;;;;;1.92;1.83;;;;;;;;;;5186909;28;20264;-65
2022/08/28 15:25:20;;;;;;;4.00;2.13;;;;;;;;;;5203014;28;20014;-65
2022/08/28 15:27:50;;;;;;;1.20;1.20;;;;;;;;;;5205026;28;20029;-66
2022/08/28 15:30:20;;;;;;;5.83;2.50;;;;;;;;;;5180727;28;20382;-66